Time;durP1;ratioP1;P1;durP2;ratioP2;P2;SDS_P1;SDS_P2;PMS_P1;PMS_P2;Temp;Humidity;BMP_temperature;BMP_pressure;BME280_temperature;BME280_humidity;BME280_pressure;Samples;Min_cycle;Max_cycle;Signal;HPM_P1;HPM_P2
2023/10/31 00:00:41;;;;;;;36.85;20.60;;;;;;;;;;5002421;28;20455;-82
2023/10/31 00:03:07;;;;;;;35.05;20.85;;;;;;;;;;5001653;28;20080;-83
2023/10/31 00:05:33;;;;;;;32.03;21.05;;;;;;;;;;4994766;28;20412;-82
2023/10/31 00:07:59;;;;;;;38.08;22.80;;;;;;;;;;4995601;28;20046;-82
2023/10/31 00:10:25;;;;;;;31.50;21.48;;;;;;;;;;4995701;28;20096;-82
2023/10/31 00:12:51;;;;;;;37.22;22.40;;;;;;;;;;5001617;28;20050;-82
2023/10/31 00:15:17;;;;;;;34.17;22.13;;;;;;;;;;5000995;28;20050;-82
2023/10/31 00:17:43;;;;;;;37.00;23.50;;;;;;;;;;5001665;28;20046;-83
2023/10/31 00:20:10;;;;;;;41.28;24.35;;;;;;;;;;4998915;28;20054;-82
2023/10/31 00:22:36;;;;;;;46.00;24.65;;;;;;;;;;5012811;28;20053;-82
2023/10/31 00:25:02;;;;;;;38.40;23.92;;;;;;;;;;4988795;28;20039;-83
2023/10/31 00:27:28;;;;;;;39.17;23.02;;;;;;;;;;5000503;28;20484;-83
2023/10/31 00:29:54;;;;;;;36.67;22.92;;;;;;;;;;4996266;28;20046;-82
2023/10/31 00:32:20;;;;;;;35.25;22.50;;;;;;;;;;4999641;28;20066;-83
2023/10/31 00:34:46;;;;;;;41.13;23.20;;;;;;;;;;5001820;28;20069;-83
2023/10/31 00:37:12;;;;;;;33.67;22.90;;;;;;;;;;5000478;28;20039;-83
2023/10/31 00:39:38;;;;;;;38.13;23.67;;;;;;;;;;4993118;28;20043;-83
2023/10/31 00:42:04;;;;;;;36.30;22.73;;;;;;;;;;5003380;28;20388;-84
2023/10/31 00:44:30;;;;;;;35.00;22.67;;;;;;;;;;5005722;28;20050;-84
2023/10/31 00:46:56;;;;;;;30.92;20.25;;;;;;;;;;4999045;28;20049;-83
2023/10/31 00:49:22;;;;;;;38.38;23.25;;;;;;;;;;5002214;28;20046;-83
2023/10/31 00:51:48;;;;;;;40.42;24.38;;;;;;;;;;5002244;28;20042;-83
2023/10/31 00:54:14;;;;;;;43.60;23.15;;;;;;;;;;5002160;28;20049;-84
2023/10/31 00:56:40;;;;;;;38.75;22.10;;;;;;;;;;4993790;28;20050;-84
2023/10/31 00:59:07;;;;;;;45.97;24.73;;;;;;;;;;4995174;28;20042;-83
2023/10/31 01:01:33;;;;;;;34.53;23.63;;;;;;;;;;5002775;28;20169;-84
2023/10/31 01:03:59;;;;;;;44.50;23.70;;;;;;;;;;5002870;28;20077;-84
2023/10/31 01:06:25;;;;;;;48.65;23.40;;;;;;;;;;4994359;28;20047;-84
2023/10/31 01:08:51;;;;;;;50.55;24.35;;;;;;;;;;4987012;28;20049;-85
2023/10/31 01:11:17;;;;;;;55.10;25.60;;;;;;;;;;4999619;28;20054;-85
2023/10/31 01:13:43;;;;;;;53.72;25.08;;;;;;;;;;4993708;28;20050;-85
2023/10/31 01:16:09;;;;;;;76.28;28.83;;;;;;;;;;4997502;28;20092;-85
2023/10/31 01:18:35;;;;;;;66.97;27.35;;;;;;;;;;4997680;28;20129;-85
2023/10/31 01:21:02;;;;;;;57.50;25.25;;;;;;;;;;4996357;28;20082;-85
2023/10/31 01:23:28;;;;;;;51.50;26.48;;;;;;;;;;4996254;28;20101;-85
2023/10/31 01:25:57;;;;;;;61.38;27.92;;;;;;;;;;4991236;28;20054;-85
2023/10/31 01:28:23;;;;;;;45.38;25.10;;;;;;;;;;4980058;28;20047;-85
2023/10/31 01:30:49;;;;;;;42.47;24.63;;;;;;;;;;4992491;28;20087;-85
2023/10/31 01:33:15;;;;;;;39.53;24.10;;;;;;;;;;4998074;28;20042;-85
2023/10/31 01:35:42;;;;;;;52.75;27.10;;;;;;;;;;4998174;28;20060;-85
2023/10/31 01:38:08;;;;;;;42.15;25.55;;;;;;;;;;4990620;28;20047;-85
2023/10/31 01:40:34;;;;;;;49.72;26.45;;;;;;;;;;4995566;28;20057;-85
2023/10/31 01:43:00;;;;;;;42.53;22.52;;;;;;;;;;4992800;28;20077;-84
2023/10/31 01:45:26;;;;;;;76.18;26.77;;;;;;;;;;5001269;28;20042;-84
2023/10/31 01:47:52;;;;;;;21.10;8.13;;;;;;;;;;4997440;28;21097;-84
2023/10/31 01:50:18;;;;;;;11.75;5.07;;;;;;;;;;4999322;28;20054;-84
2023/10/31 01:52:44;;;;;;;7.60;3.03;;;;;;;;;;4998396;28;20487;-83
2023/10/31 01:55:11;;;;;;;4.32;1.52;;;;;;;;;;5000319;28;20065;-84
2023/10/31 01:57:37;;;;;;;5.93;1.63;;;;;;;;;;4999275;28;20096;-83
2023/10/31 02:00:03;;;;;;;5.80;1.15;;;;;;;;;;5000841;28;20064;-83
2023/10/31 02:02:32;;;;;;;6.43;1.02;;;;;;;;;;4977944;28;20133;-84
2023/10/31 02:04:58;;;;;;;2.83;0.90;;;;;;;;;;5000059;28;20057;-83
2023/10/31 02:07:24;;;;;;;3.13;0.90;;;;;;;;;;4999829;28;20415;-84
2023/10/31 02:09:51;;;;;;;4.63;0.73;;;;;;;;;;4997962;28;20385;-83
2023/10/31 02:12:44;;;;;;;5.40;0.93;;;;;;;;;;4991874;28;20054;-84
2023/10/31 02:15:11;;;;;;;3.28;0.88;;;;;;;;;;4995317;28;20111;-84
2023/10/31 02:17:37;;;;;;;2.45;1.00;;;;;;;;;;4997042;28;20129;-84
2023/10/31 02:20:03;;;;;;;3.47;0.90;;;;;;;;;;4998810;28;20051;-83
2023/10/31 02:22:29;;;;;;;4.82;1.20;;;;;;;;;;4996933;28;20098;-84
2023/10/31 02:24:56;;;;;;;3.63;0.88;;;;;;;;;;4998192;28;20097;-84
2023/10/31 02:27:22;;;;;;;2.78;0.95;;;;;;;;;;4997565;28;20543;-84
2023/10/31 02:29:48;;;;;;;3.25;0.80;;;;;;;;;;4998543;28;20055;-84
2023/10/31 02:32:14;;;;;;;3.92;0.90;;;;;;;;;;4997556;28;20060;-85
2023/10/31 02:34:40;;;;;;;2.38;0.73;;;;;;;;;;4997628;28;20333;-84
2023/10/31 02:37:06;;;;;;;8.40;1.23;;;;;;;;;;5002032;28;20038;-84
2023/10/31 02:39:33;;;;;;;4.57;1.20;;;;;;;;;;5001990;28;20047;-82
2023/10/31 02:41:59;;;;;;;5.05;1.10;;;;;;;;;;5003625;28;20046;-84
2023/10/31 02:44:25;;;;;;;4.63;0.90;;;;;;;;;;4996372;28;20447;-83
2023/10/31 02:46:51;;;;;;;6.45;1.35;;;;;;;;;;5005489;28;20050;-84
2023/10/31 02:49:17;;;;;;;5.82;0.90;;;;;;;;;;5009116;28;20042;-84
2023/10/31 02:51:43;;;;;;;4.38;1.00;;;;;;;;;;5029108;28;20130;-84
2023/10/31 02:54:10;;;;;;;4.78;1.10;;;;;;;;;;5019657;28;20102;-84
2023/10/31 02:56:36;;;;;;;6.47;1.20;;;;;;;;;;5017980;28;20038;-84
2023/10/31 02:59:02;;;;;;;6.22;1.17;;;;;;;;;;5016274;28;20050;-84
2023/10/31 03:01:31;;;;;;;4.03;1.20;;;;;;;;;;5017638;28;20050;-84
2023/10/31 03:03:57;;;;;;;5.65;1.00;;;;;;;;;;5017957;28;20077;-84
2023/10/31 03:06:23;;;;;;;3.90;0.80;;;;;;;;;;5004413;28;20047;-85
2023/10/31 03:08:49;;;;;;;4.03;0.70;;;;;;;;;;5007646;28;20052;-84
2023/10/31 03:11:22;;;;;;;4.30;0.85;;;;;;;;;;5013687;28;20045;-85
2023/10/31 03:13:49;;;;;;;4.05;0.77;;;;;;;;;;5009126;28;20065;-84
2023/10/31 03:16:15;;;;;;;6.07;1.02;;;;;;;;;;5020014;28;20098;-84
2023/10/31 03:18:41;;;;;;;3.65;0.88;;;;;;;;;;5015870;28;20043;-84
2023/10/31 03:21:07;;;;;;;7.72;1.05;;;;;;;;;;5003091;28;20039;-83
2023/10/31 03:23:33;;;;;;;5.88;1.10;;;;;;;;;;5011006;28;20105;-83
2023/10/31 03:25:59;;;;;;;6.15;1.10;;;;;;;;;;5004518;28;20035;-83
2023/10/31 03:28:25;;;;;;;5.82;1.02;;;;;;;;;;5001021;28;20047;-83
2023/10/31 03:30:52;;;;;;;5.90;1.30;;;;;;;;;;5013110;28;20102;-82
2023/10/31 03:33:18;;;;;;;5.57;1.35;;;;;;;;;;5014327;28;20099;-83
2023/10/31 03:35:44;;;;;;;9.18;1.63;;;;;;;;;;5003184;28;20389;-83
2023/10/31 03:38:10;;;;;;;5.18;1.52;;;;;;;;;;4996433;28;20065;-83
2023/10/31 03:40:36;;;;;;;7.10;1.80;;;;;;;;;;5004145;28;20042;-83
2023/10/31 03:43:02;;;;;;;7.68;2.10;;;;;;;;;;5003763;28;20046;-82
2023/10/31 03:45:29;;;;;;;6.88;1.75;;;;;;;;;;5004073;28;20097;-82
2023/10/31 03:47:55;;;;;;;6.72;2.05;;;;;;;;;;4997335;28;20480;-82
2023/10/31 03:50:21;;;;;;;5.90;2.13;;;;;;;;;;4995139;28;20050;-83
2023/10/31 03:52:47;;;;;;;8.25;2.22;;;;;;;;;;5005072;28;20050;-83
2023/10/31 03:55:13;;;;;;;7.07;2.65;;;;;;;;;;4986494;28;20047;-83
2023/10/31 03:57:40;;;;;;;6.13;2.53;;;;;;;;;;4990972;28;20058;-82
2023/10/31 04:00:07;;;;;;;8.45;3.00;;;;;;;;;;5008629;28;20054;-82
2023/10/31 04:02:33;;;;;;;8.82;3.28;;;;;;;;;;5012823;28;20056;-82
2023/10/31 04:04:59;;;;;;;9.45;3.17;;;;;;;;;;5001369;28;20045;-82
2023/10/31 04:07:25;;;;;;;10.65;3.00;;;;;;;;;;5002660;28;20106;-83
2023/10/31 04:09:52;;;;;;;7.57;2.50;;;;;;;;;;5002252;28;20053;-83
2023/10/31 04:12:18;;;;;;;9.20;2.40;;;;;;;;;;5002955;28;20056;-83
2023/10/31 04:14:44;;;;;;;7.65;2.40;;;;;;;;;;5001721;28;20573;-82
2023/10/31 04:17:10;;;;;;;9.07;2.38;;;;;;;;;;5001913;28;20296;-82
2023/10/31 04:19:37;;;;;;;7.57;2.47;;;;;;;;;;4997288;28;20047;-82
2023/10/31 04:22:03;;;;;;;6.78;2.45;;;;;;;;;;5000978;28;20049;-83
2023/10/31 04:24:29;;;;;;;7.68;2.78;;;;;;;;;;5000832;28;20129;-83
2023/10/31 04:26:55;;;;;;;8.65;2.88;;;;;;;;;;4995567;28;20043;-83
2023/10/31 04:29:21;;;;;;;7.45;2.60;;;;;;;;;;5001504;28;20073;-83
2023/10/31 04:31:47;;;;;;;6.45;2.20;;;;;;;;;;4994781;28;20073;-83
2023/10/31 04:34:13;;;;;;;7.15;2.60;;;;;;;;;;4996654;28;20057;-82
2023/10/31 04:36:40;;;;;;;6.60;2.28;;;;;;;;;;4999974;28;20046;-83
2023/10/31 04:39:06;;;;;;;8.63;2.30;;;;;;;;;;4992196;28;20050;-83
2023/10/31 04:41:32;;;;;;;5.45;2.20;;;;;;;;;;4994429;28;20500;-83
2023/10/31 04:43:58;;;;;;;7.78;2.38;;;;;;;;;;5001617;28;20049;-83
2023/10/31 04:46:27;;;;;;;8.60;2.47;;;;;;;;;;4997233;28;20058;-83
2023/10/31 04:48:53;;;;;;;6.53;2.22;;;;;;;;;;4999837;28;20629;-83
2023/10/31 04:51:20;;;;;;;5.40;2.35;;;;;;;;;;4991543;28;20038;-82
2023/10/31 04:53:46;;;;;;;5.43;2.08;;;;;;;;;;4999559;28;20944;-82
2023/10/31 04:56:13;;;;;;;6.13;2.10;;;;;;;;;;4990131;28;20061;-82
2023/10/31 04:58:39;;;;;;;5.22;1.95;;;;;;;;;;4973604;28;20048;-82
2023/10/31 05:01:09;;;;;;;6.22;1.85;;;;;;;;;;4997844;28;20153;-82
2023/10/31 05:03:35;;;;;;;5.50;1.73;;;;;;;;;;4993199;28;20432;-83
2023/10/31 05:06:01;;;;;;;4.45;1.40;;;;;;;;;;4990823;28;20404;-83
2023/10/31 05:08:27;;;;;;;4.18;1.05;;;;;;;;;;5007091;28;20401;-82
2023/10/31 05:10:53;;;;;;;5.03;1.13;;;;;;;;;;4989238;28;20053;-83
2023/10/31 05:13:19;;;;;;;6.57;1.10;;;;;;;;;;5004424;28;20039;-83
2023/10/31 05:15:45;;;;;;;3.70;0.80;;;;;;;;;;4996723;28;20046;-83
2023/10/31 05:18:11;;;;;;;4.47;1.10;;;;;;;;;;5001353;28;20038;-83
2023/10/31 05:20:37;;;;;;;5.40;1.27;;;;;;;;;;4999365;28;20053;-84
2023/10/31 05:23:03;;;;;;;3.45;1.00;;;;;;;;;;5002473;28;20046;-82
2023/10/31 05:25:30;;;;;;;3.42;1.10;;;;;;;;;;4999784;28;20054;-83
2023/10/31 05:27:59;;;;;;;3.25;0.95;;;;;;;;;;4998051;28;20046;-83
2023/10/31 05:30:25;;;;;;;3.30;1.08;;;;;;;;;;4996526;28;20488;-82
2023/10/31 05:32:51;;;;;;;4.15;1.00;;;;;;;;;;4994016;28;20100;-84
2023/10/31 05:35:17;;;;;;;3.95;0.93;;;;;;;;;;5000994;28;20042;-83
2023/10/31 05:37:44;;;;;;;4.90;1.10;;;;;;;;;;5000357;28;20124;-83
2023/10/31 05:40:10;;;;;;;3.95;1.00;;;;;;;;;;5001342;28;20168;-83
2023/10/31 05:42:36;;;;;;;3.83;1.13;;;;;;;;;;5000573;28;20056;-84
2023/10/31 05:45:03;;;;;;;4.82;1.13;;;;;;;;;;5001085;28;20046;-84
2023/10/31 05:47:29;;;;;;;4.30;1.08;;;;;;;;;;5001762;28;20108;-84
2023/10/31 05:49:55;;;;;;;4.07;1.13;;;;;;;;;;4995044;28;20058;-84
2023/10/31 05:52:21;;;;;;;6.22;1.10;;;;;;;;;;4995673;28;20046;-84
2023/10/31 05:54:47;;;;;;;4.97;1.20;;;;;;;;;;4982563;28;20054;-84
2023/10/31 05:57:13;;;;;;;5.32;1.30;;;;;;;;;;4985415;28;20046;-83
2023/10/31 05:59:39;;;;;;;5.57;1.02;;;;;;;;;;4990529;28;20050;-83
2023/10/31 06:02:05;;;;;;;4.40;1.05;;;;;;;;;;4996876;28;20137;-83
2023/10/31 06:04:31;;;;;;;3.72;1.00;;;;;;;;;;5000424;28;20042;-84
2023/10/31 06:06:58;;;;;;;4.90;1.00;;;;;;;;;;4994328;28;20053;-83
2023/10/31 06:09:24;;;;;;;5.10;1.10;;;;;;;;;;4985851;28;20049;-83
2023/10/31 06:11:50;;;;;;;5.13;1.20;;;;;;;;;;4989774;28;20420;-85
2023/10/31 06:14:16;;;;;;;4.53;1.00;;;;;;;;;;4989145;28;20054;-84
2023/10/31 06:16:46;;;;;;;5.03;1.05;;;;;;;;;;4998811;28;20069;-84
2023/10/31 06:19:12;;;;;;;5.13;1.10;;;;;;;;;;4998998;28;20047;-83
2023/10/31 06:21:38;;;;;;;5.07;1.40;;;;;;;;;;4999003;28;20058;-83
2023/10/31 06:24:04;;;;;;;5.50;1.45;;;;;;;;;;4999887;28;20144;-84
2023/10/31 06:26:30;;;;;;;3.78;1.15;;;;;;;;;;4995662;28;20050;-84
2023/10/31 06:29:00;;;;;;;3.92;1.17;;;;;;;;;;5001879;28;20074;-83
2023/10/31 06:31:26;;;;;;;5.18;1.10;;;;;;;;;;4999230;28;20680;-84
2023/10/31 06:33:52;;;;;;;3.88;0.93;;;;;;;;;;5001043;28;20049;-83
2023/10/31 06:36:18;;;;;;;4.15;1.00;;;;;;;;;;4998221;28;20113;-84
2023/10/31 06:38:44;;;;;;;5.72;1.00;;;;;;;;;;4999164;28;20056;-83
2023/10/31 06:41:10;;;;;;;5.35;1.30;;;;;;;;;;4997184;28;20045;-84
2023/10/31 06:43:36;;;;;;;2.58;0.70;;;;;;;;;;4995631;28;20051;-83
2023/10/31 06:46:04;;;;;;;4.93;1.30;;;;;;;;;;4998391;28;20076;-84
2023/10/31 06:48:30;;;;;;;4.38;1.13;;;;;;;;;;4999373;28;20115;-83
2023/10/31 06:50:59;;;;;;;5.53;1.38;;;;;;;;;;4995357;28;20338;-83
2023/10/31 06:53:25;;;;;;;7.20;1.90;;;;;;;;;;4983862;28;20614;-83
2023/10/31 06:55:51;;;;;;;10.15;2.90;;;;;;;;;;4996860;28;20054;-83
2023/10/31 06:58:17;;;;;;;6.65;1.80;;;;;;;;;;4990809;28;20050;-83
2023/10/31 07:00:43;;;;;;;7.72;1.65;;;;;;;;;;4997138;28;20125;-84
2023/10/31 07:03:14;;;;;;;4.28;1.42;;;;;;;;;;4999378;28;20092;-84
2023/10/31 07:05:40;;;;;;;6.47;1.73;;;;;;;;;;4988748;28;20140;-84
2023/10/31 07:08:06;;;;;;;5.45;1.80;;;;;;;;;;4997860;28;20177;-84
2023/10/31 07:10:33;;;;;;;6.57;2.22;;;;;;;;;;4995715;28;20055;-83
2023/10/31 07:12:59;;;;;;;6.40;2.38;;;;;;;;;;5000056;28;20050;-83
2023/10/31 07:15:26;;;;;;;4.85;2.47;;;;;;;;;;5001113;28;20050;-83
2023/10/31 07:17:52;;;;;;;6.85;2.72;;;;;;;;;;4999280;28;20042;-83
2023/10/31 07:20:18;;;;;;;7.15;2.95;;;;;;;;;;4998842;28;20539;-83
2023/10/31 07:22:45;;;;;;;7.53;2.83;;;;;;;;;;5001486;28;20054;-83
2023/10/31 07:25:11;;;;;;;6.00;2.55;;;;;;;;;;4992871;28;20054;-83
2023/10/31 07:27:37;;;;;;;8.10;3.33;;;;;;;;;;5000676;28;20060;-83
2023/10/31 07:30:06;;;;;;;8.60;3.35;;;;;;;;;;5000730;28;20085;-83
2023/10/31 07:32:32;;;;;;;7.30;3.70;;;;;;;;;;4995848;28;20134;-83
2023/10/31 07:34:58;;;;;;;7.68;3.90;;;;;;;;;;4994987;28;20077;-83
2023/10/31 07:37:24;;;;;;;8.32;4.32;;;;;;;;;;5004061;28;20340;-83
2023/10/31 07:39:51;;;;;;;8.15;4.20;;;;;;;;;;5004427;28;20046;-83
2023/10/31 07:42:17;;;;;;;10.45;4.00;;;;;;;;;;5002365;28;20066;-83
2023/10/31 07:44:43;;;;;;;8.30;3.65;;;;;;;;;;4999149;28;20046;-83
2023/10/31 07:47:09;;;;;;;7.30;3.88;;;;;;;;;;5003469;28;20097;-83
2023/10/31 07:49:35;;;;;;;7.38;3.47;;;;;;;;;;4993923;28;20056;-83
2023/10/31 07:52:01;;;;;;;6.28;3.45;;;;;;;;;;4992702;28;20053;-83
2023/10/31 07:54:27;;;;;;;9.27;4.00;;;;;;;;;;4999085;28;20099;-84
2023/10/31 07:56:55;;;;;;;8.02;3.78;;;;;;;;;;5003068;28;20042;-83
2023/10/31 07:59:21;;;;;;;6.88;4.18;;;;;;;;;;4999065;28;20089;-83
2023/10/31 08:01:48;;;;;;;10.13;4.07;;;;;;;;;;5001392;28;20042;-83
2023/10/31 08:04:16;;;;;;;10.13;3.70;;;;;;;;;;5001751;28;20050;-82
2023/10/31 08:06:42;;;;;;;8.90;4.32;;;;;;;;;;5003007;28;20046;-82
2023/10/31 08:09:08;;;;;;;6.55;3.25;;;;;;;;;;5002953;28;20396;-83
2023/10/31 08:11:35;;;;;;;9.13;4.10;;;;;;;;;;5000180;28;20058;-83
2023/10/31 08:14:02;;;;;;;6.57;3.38;;;;;;;;;;4997848;28;20055;-83
2023/10/31 08:16:28;;;;;;;8.52;3.67;;;;;;;;;;5001113;28;20102;-83
2023/10/31 08:18:54;;;;;;;9.98;3.28;;;;;;;;;;5003352;28;20050;-83
2023/10/31 08:21:20;;;;;;;6.55;3.10;;;;;;;;;;5002932;28;20209;-82
2023/10/31 08:23:46;;;;;;;7.60;2.38;;;;;;;;;;5003056;28;20072;-82
2023/10/31 08:26:13;;;;;;;9.18;2.80;;;;;;;;;;5003043;28;20085;-82
2023/10/31 08:28:39;;;;;;;10.00;2.88;;;;;;;;;;5003866;28;20054;-82
2023/10/31 08:31:08;;;;;;;7.13;2.60;;;;;;;;;;5002978;28;20082;-82
2023/10/31 08:33:34;;;;;;;5.30;1.85;;;;;;;;;;5003023;28;20054;-82
2023/10/31 08:36:01;;;;;;;5.90;1.77;;;;;;;;;;5003224;28;20176;-82
2023/10/31 08:38:28;;;;;;;5.28;1.73;;;;;;;;;;5003767;28;20150;-82
2023/10/31 08:40:54;;;;;;;6.05;1.50;;;;;;;;;;5003925;28;20046;-83
2023/10/31 08:43:20;;;;;;;7.30;1.52;;;;;;;;;;5003839;28;20049;-83
2023/10/31 08:45:47;;;;;;;4.30;1.40;;;;;;;;;;5004544;28;20055;-83
2023/10/31 08:48:13;;;;;;;7.13;1.67;;;;;;;;;;5003902;28;20054;-83
2023/10/31 08:50:39;;;;;;;5.43;1.38;;;;;;;;;;5002800;28;20048;-84
2023/10/31 08:53:05;;;;;;;3.85;1.00;;;;;;;;;;5003323;28;20050;-82
2023/10/31 08:55:31;;;;;;;6.22;1.10;;;;;;;;;;5004442;28;20469;-83
2023/10/31 08:57:57;;;;;;;6.43;1.00;;;;;;;;;;5005010;28;20074;-82
2023/10/31 09:00:23;;;;;;;3.80;0.90;;;;;;;;;;5005201;28;20437;-83
2023/10/31 09:02:49;;;;;;;4.38;0.85;;;;;;;;;;5004797;28;20078;-83
2023/10/31 09:05:15;;;;;;;6.07;0.90;;;;;;;;;;5004616;28;20047;-83
2023/10/31 09:07:42;;;;;;;5.03;0.85;;;;;;;;;;5003265;28;20050;-83
2023/10/31 09:10:08;;;;;;;5.43;0.68;;;;;;;;;;5003385;28;20380;-84
2023/10/31 09:12:35;;;;;;;4.40;0.82;;;;;;;;;;5004544;28;20077;-83
2023/10/31 09:15:01;;;;;;;2.83;0.52;;;;;;;;;;5005040;28;20042;-84
2023/10/31 09:17:27;;;;;;;5.57;0.90;;;;;;;;;;5004392;28;20054;-83
2023/10/31 09:19:53;;;;;;;6.85;0.80;;;;;;;;;;5001469;28;21098;-83
2023/10/31 09:22:20;;;;;;;5.28;0.90;;;;;;;;;;5004240;28;20093;-83
2023/10/31 09:24:46;;;;;;;4.93;0.75;;;;;;;;;;5003344;28;20102;-84
2023/10/31 09:27:12;;;;;;;4.40;0.60;;;;;;;;;;5005152;28;20073;-84
2023/10/31 09:29:38;;;;;;;3.80;0.60;;;;;;;;;;5004707;28;20054;-83
2023/10/31 09:32:06;;;;;;;7.68;0.93;;;;;;;;;;5004747;28;20046;-84
2023/10/31 09:34:32;;;;;;;3.17;0.50;;;;;;;;;;5004202;28;20038;-84
2023/10/31 09:36:58;;;;;;;3.80;0.70;;;;;;;;;;4986570;28;20046;-84
2023/10/31 09:39:24;;;;;;;4.10;0.60;;;;;;;;;;5004339;28;20054;-84
2023/10/31 09:41:50;;;;;;;6.07;0.70;;;;;;;;;;5005065;28;20061;-83
2023/10/31 09:44:16;;;;;;;3.80;0.70;;;;;;;;;;5004811;28;20038;-84
2023/10/31 09:46:44;;;;;;;4.07;0.70;;;;;;;;;;5005811;28;20042;-83
2023/10/31 09:49:11;;;;;;;3.53;0.57;;;;;;;;;;5006765;28;20046;-83
2023/10/31 09:51:38;;;;;;;4.85;0.75;;;;;;;;;;4994642;28;20106;-81
2023/10/31 09:54:05;;;;;;;4.03;0.60;;;;;;;;;;4995642;28;20061;-84
2023/10/31 09:56:34;;;;;;;7.78;0.75;;;;;;;;;;5001113;28;20054;-84
2023/10/31 09:59:01;;;;;;;3.83;0.60;;;;;;;;;;4993716;28;20052;-84
2023/10/31 10:01:27;;;;;;;4.10;0.60;;;;;;;;;;4987569;28;20498;-84
2023/10/31 10:03:54;;;;;;;5.82;0.80;;;;;;;;;;5004374;28;20092;-84
2023/10/31 10:06:21;;;;;;;4.25;0.65;;;;;;;;;;4974586;28;20061;-84
2023/10/31 10:08:47;;;;;;;5.22;0.60;;;;;;;;;;4994226;28;20053;-84
2023/10/31 10:11:13;;;;;;;3.13;0.40;;;;;;;;;;5002775;28;20472;-83
2023/10/31 10:13:40;;;;;;;4.03;0.60;;;;;;;;;;5015239;28;20049;-84
2023/10/31 10:16:06;;;;;;;6.32;0.70;;;;;;;;;;5006522;28;20480;-83
2023/10/31 10:18:34;;;;;;;5.25;0.82;;;;;;;;;;5003354;28;20050;-83
2023/10/31 10:21:04;;;;;;;7.85;0.80;;;;;;;;;;5003472;28;20348;-83
2023/10/31 10:23:31;;;;;;;4.88;0.75;;;;;;;;;;5003083;28;20114;-83
2023/10/31 10:25:57;;;;;;;6.13;0.60;;;;;;;;;;4995848;28;20144;-83
2023/10/31 10:28:29;;;;;;;7.57;0.88;;;;;;;;;;5003425;28;20145;-83
2023/10/31 10:30:55;;;;;;;5.07;0.80;;;;;;;;;;4986925;28;20053;-83
2023/10/31 10:33:22;;;;;;;5.55;0.70;;;;;;;;;;5003637;28;20047;-83
2023/10/31 10:35:48;;;;;;;4.85;0.80;;;;;;;;;;5003175;28;20096;-83
2023/10/31 10:38:18;;;;;;;5.53;0.60;;;;;;;;;;5000932;28;20047;-83
2023/10/31 10:40:46;;;;;;;5.43;0.70;;;;;;;;;;5003077;28;20439;-83
2023/10/31 10:43:25;;;;;;;6.28;0.82;;;;;;;;;;5001398;28;20046;-82
2023/10/31 10:46:00;;;;;;;7.10;0.77;;;;;;;;;;4999183;28;20077;-83
2023/10/31 10:48:27;;;;;;;10.80;1.00;;;;;;;;;;4981736;28;20047;-83
2023/10/31 10:51:00;;;;;;;7.53;0.90;;;;;;;;;;4986434;28;20050;-83
2023/10/31 10:53:30;;;;;;;5.85;0.90;;;;;;;;;;5002968;28;20050;-83
2023/10/31 10:55:57;;;;;;;6.05;0.90;;;;;;;;;;5004234;28;20042;-83
2023/10/31 10:58:32;;;;;;;7.65;0.80;;;;;;;;;;5006283;28;20125;-83
2023/10/31 11:00:59;;;;;;;4.88;0.60;;;;;;;;;;5006327;28;20535;-83
2023/10/31 11:03:28;;;;;;;5.97;1.02;;;;;;;;;;5006652;28;20061;-83
2023/10/31 11:05:57;;;;;;;6.78;0.85;;;;;;;;;;5006739;28;20388;-82
2023/10/31 11:08:24;;;;;;;8.45;1.20;;;;;;;;;;5006233;28;20058;-82
2023/10/31 11:10:50;;;;;;;7.40;0.73;;;;;;;;;;5005664;28;20058;-83
2023/10/31 11:13:16;;;;;;;5.43;0.80;;;;;;;;;;5006716;28;20042;-84
2023/10/31 11:15:43;;;;;;;4.10;0.70;;;;;;;;;;5004526;28;20069;-83
2023/10/31 11:18:10;;;;;;;6.03;0.70;;;;;;;;;;5005438;28;20038;-83
2023/10/31 11:20:37;;;;;;;5.97;0.85;;;;;;;;;;5005400;28;20072;-82
2023/10/31 11:23:06;;;;;;;6.32;0.90;;;;;;;;;;5007101;28;20057;-83
2023/10/31 11:25:33;;;;;;;5.38;0.85;;;;;;;;;;5005313;28;20064;-82
2023/10/31 11:28:11;;;;;;;6.28;1.15;;;;;;;;;;5004327;28;20046;-82
2023/10/31 11:30:37;;;;;;;5.97;0.50;;;;;;;;;;5007212;28;20055;-83
2023/10/31 11:33:05;;;;;;;6.72;0.90;;;;;;;;;;5006405;28;20045;-83
2023/10/31 11:35:33;;;;;;;6.38;0.90;;;;;;;;;;5007244;28;20050;-83
2023/10/31 11:38:11;;;;;;;4.32;0.88;;;;;;;;;;5004546;28;20053;-82
2023/10/31 11:40:38;;;;;;;5.28;0.77;;;;;;;;;;5006672;28;20050;-83
2023/10/31 11:43:05;;;;;;;4.95;0.70;;;;;;;;;;5021163;28;20057;-83
2023/10/31 11:45:31;;;;;;;4.72;1.00;;;;;;;;;;5021948;28;20463;-83
2023/10/31 11:47:57;;;;;;;4.03;0.50;;;;;;;;;;5003223;28;20042;-83
2023/10/31 11:50:24;;;;;;;3.95;0.70;;;;;;;;;;5019253;28;20074;-83
2023/10/31 11:53:06;;;;;;;3.38;0.63;;;;;;;;;;5006078;28;20083;-83
2023/10/31 11:55:40;;;;;;;8.18;0.73;;;;;;;;;;5000732;28;20062;-83
2023/10/31 11:58:16;;;;;;;4.68;0.73;;;;;;;;;;4992999;28;20039;-82
2023/10/31 12:00:42;;;;;;;5.80;0.77;;;;;;;;;;5000138;28;20129;-83
2023/10/31 12:03:08;;;;;;;6.10;0.73;;;;;;;;;;5002866;28;20050;-83
2023/10/31 12:05:35;;;;;;;6.18;0.82;;;;;;;;;;5005685;28;20050;-83
2023/10/31 12:08:01;;;;;;;10.18;1.83;;;;;;;;;;5005135;28;20046;-82
2023/10/31 12:10:29;;;;;;;9.30;1.45;;;;;;;;;;5005756;28;20141;-83
2023/10/31 12:12:56;;;;;;;11.60;2.00;;;;;;;;;;4981733;28;20039;-83
2023/10/31 12:15:23;;;;;;;6.20;1.30;;;;;;;;;;4996066;28;20034;-82
2023/10/31 12:17:50;;;;;;;4.50;1.05;;;;;;;;;;5006249;28;20053;-83
2023/10/31 12:20:17;;;;;;;5.38;0.82;;;;;;;;;;5005994;28;20058;-83
2023/10/31 12:22:43;;;;;;;8.02;1.30;;;;;;;;;;5006778;28;20182;-84
2023/10/31 12:25:10;;;;;;;4.15;0.80;;;;;;;;;;5004999;28;20042;-83
2023/10/31 12:27:46;;;;;;;3.28;0.93;;;;;;;;;;5005840;28;20081;-83
2023/10/31 12:30:13;;;;;;;8.45;0.70;;;;;;;;;;5006025;28;20058;-83
2023/10/31 12:32:42;;;;;;;5.95;0.77;;;;;;;;;;5003977;28;20065;-83
2023/10/31 12:35:16;;;;;;;5.70;0.75;;;;;;;;;;5004303;28;20054;-82
2023/10/31 12:37:46;;;;;;;5.85;0.80;;;;;;;;;;5005059;28;20053;-83
2023/10/31 12:40:17;;;;;;;4.85;0.93;;;;;;;;;;5005467;28;20050;-83
2023/10/31 12:42:43;;;;;;;5.32;1.00;;;;;;;;;;5005309;28;20126;-83
2023/10/31 12:45:10;;;;;;;7.53;0.90;;;;;;;;;;5003604;28;20050;-83
2023/10/31 12:47:36;;;;;;;4.47;0.73;;;;;;;;;;5005517;28;20046;-83
2023/10/31 12:50:08;;;;;;;6.03;0.77;;;;;;;;;;4986740;28;20128;-83
2023/10/31 12:52:50;;;;;;;4.65;1.00;;;;;;;;;;5005568;28;20054;-83
2023/10/31 12:55:17;;;;;;;3.53;0.70;;;;;;;;;;5003715;28;20092;-83
2023/10/31 12:57:43;;;;;;;7.15;1.25;;;;;;;;;;5004209;28;20050;-83
2023/10/31 13:00:12;;;;;;;6.68;0.73;;;;;;;;;;5004253;28;20495;-83
2023/10/31 13:02:39;;;;;;;5.60;0.80;;;;;;;;;;5004061;28;20046;-83
2023/10/31 13:05:15;;;;;;;5.88;0.55;;;;;;;;;;5003398;28;20136;-83
2023/10/31 13:07:48;;;;;;;6.35;0.70;;;;;;;;;;5001299;28;20048;-83
2023/10/31 13:10:16;;;;;;;5.10;0.73;;;;;;;;;;5001330;28;20448;-83
2023/10/31 13:12:44;;;;;;;5.85;1.00;;;;;;;;;;4997352;28;20368;-83
2023/10/31 13:15:10;;;;;;;5.25;0.88;;;;;;;;;;4984933;28;20082;-83
2023/10/31 13:17:38;;;;;;;6.28;0.80;;;;;;;;;;4989880;28;20384;-83
2023/10/31 13:20:06;;;;;;;4.82;0.80;;;;;;;;;;4995394;28;20090;-82
2023/10/31 13:22:32;;;;;;;4.88;0.60;;;;;;;;;;5001004;28;20054;-82
2023/10/31 13:24:58;;;;;;;5.10;0.82;;;;;;;;;;5002098;28;20045;-82
2023/10/31 13:27:24;;;;;;;5.50;0.80;;;;;;;;;;5000630;28;20099;-82
2023/10/31 13:29:50;;;;;;;6.15;0.90;;;;;;;;;;5002682;28;20054;-82
2023/10/31 13:32:17;;;;;;;4.57;0.90;;;;;;;;;;5003328;28;20073;-82
2023/10/31 13:34:43;;;;;;;4.35;1.05;;;;;;;;;;4999109;28;20055;-82
2023/10/31 13:37:09;;;;;;;10.43;1.02;;;;;;;;;;5002800;28;20062;-83
2023/10/31 13:39:35;;;;;;;5.90;1.33;;;;;;;;;;5000857;28;20061;-83
2023/10/31 13:42:01;;;;;;;9.38;1.10;;;;;;;;;;5000032;28;20050;-82
2023/10/31 13:44:27;;;;;;;6.68;0.90;;;;;;;;;;5001152;28;20052;-83
2023/10/31 13:46:53;;;;;;;9.60;1.00;;;;;;;;;;5002032;28;20054;-82
2023/10/31 13:49:19;;;;;;;7.30;1.02;;;;;;;;;;5002433;28;20042;-83
2023/10/31 13:51:49;;;;;;;8.75;1.13;;;;;;;;;;4994017;28;20109;-83
2023/10/31 13:54:15;;;;;;;6.75;0.90;;;;;;;;;;4981902;28;20050;-83
2023/10/31 13:56:41;;;;;;;6.25;0.98;;;;;;;;;;4996414;28;20046;-82
2023/10/31 13:59:07;;;;;;;7.53;1.35;;;;;;;;;;4996968;28;20057;-82
2023/10/31 14:01:33;;;;;;;5.90;1.20;;;;;;;;;;4991803;28;20050;-82
2023/10/31 14:03:59;;;;;;;6.68;1.10;;;;;;;;;;5003133;28;20070;-83
2023/10/31 14:06:29;;;;;;;6.30;0.90;;;;;;;;;;5004546;28;20057;-83
2023/10/31 14:08:56;;;;;;;5.15;0.77;;;;;;;;;;5007111;28;20074;-83
2023/10/31 14:11:25;;;;;;;5.63;0.80;;;;;;;;;;5006033;28;20081;-83
2023/10/31 14:13:54;;;;;;;7.03;1.00;;;;;;;;;;5002793;28;20051;-83
2023/10/31 14:16:20;;;;;;;4.85;0.80;;;;;;;;;;5001758;28;20491;-83
2023/10/31 14:18:47;;;;;;;4.18;0.70;;;;;;;;;;5001091;28;20042;-83
2023/10/31 14:21:13;;;;;;;4.20;0.70;;;;;;;;;;5000760;28;20108;-83
2023/10/31 14:23:39;;;;;;;6.03;0.90;;;;;;;;;;5001092;28;20050;-82
2023/10/31 14:26:05;;;;;;;4.63;0.65;;;;;;;;;;5001134;28;20073;-83
2023/10/31 14:28:31;;;;;;;5.55;1.05;;;;;;;;;;4998690;28;20054;-81
2023/10/31 14:30:58;;;;;;;5.43;1.02;;;;;;;;;;4989389;28;20050;-82
2023/10/31 14:33:24;;;;;;;5.45;0.65;;;;;;;;;;4999584;28;20117;-82
2023/10/31 14:35:50;;;;;;;5.22;0.90;;;;;;;;;;5000965;28;20054;-82